createdAt,value
2022-10-09T00:00:08.372Z,6.53
2022-10-09T00:02:41.172Z,5.57
2022-10-09T00:05:14.278Z,7.10
2022-10-09T00:07:42.303Z,6.53
2022-10-09T00:10:10.759Z,8.48
2022-10-09T00:12:45.246Z,6.30
2022-10-09T00:27:01.283Z,5.57
2022-10-09T00:29:46.706Z,5.93
2022-10-09T00:32:20.782Z,6.93
2022-10-09T00:34:57.250Z,9.18
2022-10-09T00:37:31.357Z,6.50
2022-10-09T00:40:07.107Z,8.68
2022-10-09T00:58:40.574Z,6.13
2022-10-09T01:08:00.044Z,7.38
2022-10-09T01:17:51.320Z,6.15
2022-10-09T01:24:51.167Z,5.75
2022-10-09T01:30:26.975Z,6.85
2022-10-09T01:36:01.950Z,5.93
2022-10-09T01:38:36.621Z,7.10
2022-10-09T01:43:55.934Z,7.25
2022-10-09T01:46:32.737Z,8.10
2022-10-09T01:49:02.383Z,6.85
2022-10-09T01:51:32.977Z,8.60
2022-10-09T01:54:07.727Z,5.93
2022-10-09T01:56:45.349Z,7.32
2022-10-09T02:04:54.284Z,7.07
2022-10-09T02:07:38.688Z,5.82
2022-10-09T02:13:16.162Z,6.78
2022-10-09T02:16:02.816Z,5.03
2022-10-09T02:18:55.837Z,6.18
2022-10-09T02:21:46.437Z,6.57
2022-10-09T02:27:20.276Z,5.68
2022-10-09T02:35:37.978Z,6.80
2022-10-09T02:38:08.924Z,9.18
2022-10-09T02:40:37.906Z,8.23
2022-10-09T02:43:12.844Z,7.63
2022-10-09T02:48:35.032Z,6.28
2022-10-09T02:51:12.651Z,6.22
2022-10-09T02:54:14.438Z,5.80
2022-10-09T02:59:33.572Z,8.18
2022-10-09T03:05:16.585Z,14.20
2022-10-09T03:07:56.577Z,6.72
2022-10-09T03:10:34.215Z,6.95
2022-10-09T03:13:13.187Z,8.25
2022-10-09T03:15:57.254Z,6.80
2022-10-09T03:18:42.013Z,5.60
2022-10-09T03:21:13.803Z,7.05
2022-10-09T03:23:42.791Z,6.18
2022-10-09T03:26:14.021Z,8.30
2022-10-09T03:31:53.489Z,10.00
2022-10-09T03:34:21.927Z,8.55
2022-10-09T03:37:00.066Z,8.80
2022-10-09T03:39:31.172Z,12.93
2022-10-09T03:41:59.846Z,8.98
2022-10-09T03:44:34.674Z,10.63
2022-10-09T03:47:11.645Z,11.05
2022-10-09T03:49:43.473Z,9.85
2022-10-09T03:52:13.292Z,7.78
2022-10-09T03:54:51.890Z,9.48
2022-10-09T03:57:41.364Z,10.02
2022-10-09T04:00:16.675Z,9.85
2022-10-09T04:02:51.551Z,9.45
2022-10-09T04:05:20.771Z,9.00
2022-10-09T04:07:52.852Z,11.68
2022-10-09T04:10:22.847Z,10.70
2022-10-09T04:12:57.187Z,10.65
2022-10-09T04:15:25.604Z,7.88
2022-10-09T04:17:55.543Z,9.70
2022-10-09T04:20:23.699Z,11.00
2022-10-09T04:22:56.151Z,14.30
2022-10-09T04:25:24.641Z,14.50
2022-10-09T04:27:57.888Z,17.40
2022-10-09T04:30:30.586Z,23.20
2022-10-09T04:33:03.778Z,17.00
2022-10-09T04:35:31.998Z,13.73
2022-10-09T04:40:33.116Z,15.65
2022-10-09T04:43:07.128Z,18.42
2022-10-09T04:45:42.411Z,14.40
2022-10-09T04:48:13.787Z,17.75
2022-10-09T04:53:27.622Z,17.90
2022-10-09T04:55:57.348Z,19.88
2022-10-09T05:01:24.744Z,23.25
2022-10-09T05:03:58.014Z,17.63
2022-10-09T05:06:30.317Z,22.80
2022-10-09T05:09:01.694Z,21.52
2022-10-09T05:11:30.336Z,22.55
2022-10-09T05:13:59.019Z,24.00
2022-10-09T05:17:08.523Z,27.83
2022-10-09T05:20:02.110Z,26.27
2022-10-09T05:22:50.358Z,25.95
2022-10-09T05:25:23.231Z,24.65
2022-10-09T05:30:42.922Z,18.67
2022-10-09T05:33:18.211Z,25.20
2022-10-09T05:36:10.205Z,26.00
2022-10-09T05:38:40.355Z,21.95
2022-10-09T05:41:22.881Z,22.00
2022-10-09T05:47:46.098Z,23.17
2022-10-09T05:53:50.162Z,22.50
2022-10-09T05:56:39.690Z,20.67
2022-10-09T05:59:37.877Z,21.88
2022-10-09T06:02:18.720Z,17.38
2022-10-09T06:07:30.660Z,18.38
2022-10-09T06:12:53.400Z,20.73
2022-10-09T06:15:22.890Z,21.42
2022-10-09T06:20:39.664Z,17.48
2022-10-09T06:23:13.044Z,15.88
2022-10-09T06:25:52.513Z,18.45
2022-10-09T06:28:42.519Z,20.87
2022-10-09T06:31:36.727Z,15.07
2022-10-09T06:34:05.802Z,13.40
2022-10-09T06:36:36.486Z,16.98
2022-10-09T06:39:06.501Z,14.85
2022-10-09T06:41:40.228Z,17.20
2022-10-09T06:44:24.588Z,13.68
2022-10-09T06:46:55.811Z,13.88
2022-10-09T06:52:06.554Z,12.82
2022-10-09T06:54:34.535Z,11.65
2022-10-09T06:57:02.592Z,13.25
2022-10-09T06:59:30.835Z,12.85
2022-10-09T07:01:58.890Z,17.58
2022-10-09T07:04:27.430Z,12.07
2022-10-09T07:06:55.354Z,15.45
2022-10-09T07:09:29.454Z,11.20
2022-10-09T07:11:57.797Z,13.07
2022-10-09T07:14:25.789Z,15.77
2022-10-09T07:16:56.111Z,15.13
2022-10-09T07:19:24.679Z,12.75
2022-10-09T07:21:53.692Z,13.60
2022-10-09T07:24:24.829Z,11.88
2022-10-09T07:27:01.396Z,15.85
2022-10-09T07:29:29.853Z,15.45
2022-10-09T07:32:05.790Z,15.13
2022-10-09T07:34:37.773Z,11.27
2022-10-09T07:39:56.444Z,13.32
2022-10-09T07:42:28.839Z,12.50
2022-10-09T07:44:56.962Z,13.82
2022-10-09T07:47:24.706Z,12.65
2022-10-09T07:49:53.342Z,12.45
2022-10-09T07:52:21.771Z,12.70
2022-10-09T07:58:06.827Z,10.52
2022-10-09T08:00:40.535Z,11.50
2022-10-09T08:03:08.406Z,10.05
2022-10-09T08:05:36.395Z,11.70
2022-10-09T08:08:06.456Z,14.43
2022-10-09T08:10:46.667Z,10.27
2022-10-09T08:13:14.840Z,11.18
2022-10-09T08:15:52.151Z,10.82
2022-10-09T08:21:32.044Z,11.73
2022-10-09T08:26:44.311Z,11.25
2022-10-09T08:31:56.196Z,11.60
2022-10-09T08:34:23.813Z,14.35
2022-10-09T08:36:51.770Z,14.27
2022-10-09T08:39:19.431Z,11.75
2022-10-09T08:41:54.978Z,12.75
2022-10-09T08:44:35.017Z,12.52
2022-10-09T08:47:26.635Z,12.52
2022-10-09T08:55:50.062Z,12.88
2022-10-09T08:58:25.290Z,11.13
2022-10-09T09:04:03.043Z,11.02
2022-10-09T09:06:45.466Z,12.40
2022-10-09T09:09:28.332Z,10.95
2022-10-09T09:15:01.561Z,12.70
2022-10-09T09:26:23.777Z,11.15
2022-10-09T09:31:56.890Z,11.38
2022-10-09T09:34:28.411Z,10.45
2022-10-09T09:36:58.727Z,14.05
2022-10-09T09:40:31.254Z,9.27
2022-10-09T09:42:41.718Z,11.00
2022-10-09T09:48:12.863Z,15.57
2022-10-09T09:50:50.644Z,11.65
2022-10-09T09:53:38.278Z,11.82
2022-10-09T09:56:06.325Z,12.48
2022-10-09T09:58:39.141Z,12.25
2022-10-09T10:01:07.844Z,13.13
2022-10-09T10:03:36.608Z,16.63
2022-10-09T10:06:04.534Z,13.68
2022-10-09T10:08:33.861Z,14.50
2022-10-09T10:11:02.923Z,18.92
2022-10-09T10:13:38.170Z,16.65
2022-10-09T10:16:07.831Z,13.95
2022-10-09T10:18:39.900Z,17.73
2022-10-09T10:21:10.971Z,17.90
2022-10-09T10:23:40.389Z,16.33
2022-10-09T10:26:10.989Z,14.30
2022-10-09T10:28:42.912Z,14.68
2022-10-09T10:31:13.922Z,13.75
2022-10-09T10:33:44.186Z,15.32
2022-10-09T10:36:11.949Z,15.05
2022-10-09T10:38:42.593Z,12.07
2022-10-09T10:41:12.971Z,12.50
2022-10-09T10:43:49.756Z,9.00
2022-10-09T10:46:23.958Z,11.25
2022-10-09T10:48:52.225Z,8.77
2022-10-09T10:51:25.883Z,11.63
2022-10-09T10:54:01.350Z,11.40
2022-10-09T10:56:36.001Z,9.00
2022-10-09T10:59:40.881Z,10.75
2022-10-09T11:02:32.106Z,10.23
2022-10-09T11:05:03.231Z,6.97
2022-10-09T11:07:39.964Z,9.02
2022-10-09T11:10:23.407Z,7.60
2022-10-09T11:12:50.896Z,6.60
2022-10-09T11:15:30.862Z,9.95
2022-10-09T11:17:58.444Z,6.17
2022-10-09T11:20:38.045Z,8.68
2022-10-09T11:23:24.528Z,7.65
2022-10-09T11:25:58.781Z,7.25
2022-10-09T11:28:29.263Z,7.35
2022-10-09T11:31:02.731Z,7.50
2022-10-09T11:33:35.299Z,7.13
2022-10-09T11:36:06.732Z,8.85
2022-10-09T11:38:37.436Z,5.45
2022-10-09T11:41:07.400Z,11.55
2022-10-09T11:43:35.403Z,4.30
2022-10-09T11:46:10.193Z,5.28
2022-10-09T11:48:42.957Z,3.58
2022-10-09T11:51:10.514Z,6.65
2022-10-09T11:53:39.978Z,5.75
2022-10-09T11:56:08.963Z,5.72
2022-10-09T11:58:36.574Z,8.27
2022-10-09T12:01:23.886Z,9.02
2022-10-09T12:04:02.670Z,4.57
2022-10-09T12:06:30.980Z,4.15
2022-10-09T12:09:03.956Z,5.85
2022-10-09T12:11:32.652Z,7.72
2022-10-09T12:14:06.054Z,6.03
2022-10-09T12:16:41.830Z,4.68
2022-10-09T12:19:16.303Z,6.55
2022-10-09T12:21:47.655Z,5.30
2022-10-09T12:24:23.731Z,3.55
2022-10-09T12:26:52.537Z,6.70
2022-10-09T12:29:34.546Z,5.63
2022-10-09T12:32:08.474Z,6.65
2022-10-09T12:34:43.994Z,3.80
2022-10-09T12:37:19.497Z,3.85
2022-10-09T12:39:47.699Z,4.05
2022-10-09T12:42:17.321Z,5.80
2022-10-09T12:44:46.032Z,6.60
2022-10-09T12:47:22.572Z,2.95
2022-10-09T12:49:57.541Z,3.10
2022-10-09T12:52:25.198Z,8.18
2022-10-09T12:54:52.784Z,4.63
2022-10-09T12:57:24.009Z,4.30
2022-10-09T12:59:54.648Z,4.47
2022-10-09T13:02:22.507Z,4.72
2022-10-09T13:05:02.283Z,3.63
2022-10-09T13:07:32.383Z,5.75
2022-10-09T13:10:07.335Z,3.70
2022-10-09T13:12:35.133Z,3.78
2022-10-09T13:15:05.097Z,4.65
2022-10-09T13:17:34.176Z,9.63
2022-10-09T13:20:03.477Z,4.78
2022-10-09T13:22:35.755Z,4.88
2022-10-09T13:25:04.257Z,4.45
2022-10-09T13:27:34.222Z,4.28
2022-10-09T13:30:02.281Z,3.15
2022-10-09T13:32:29.906Z,3.60
2022-10-09T13:34:58.171Z,4.10
2022-10-09T13:37:26.681Z,3.28
2022-10-09T13:39:55.090Z,4.32
2022-10-09T13:42:23.743Z,2.67
2022-10-09T13:44:51.280Z,4.03
2022-10-09T13:47:24.060Z,5.47
2022-10-09T13:49:52.222Z,6.65
2022-10-09T13:52:19.695Z,4.07
2022-10-09T13:54:47.279Z,4.68
2022-10-09T13:57:14.800Z,5.72
2022-10-09T13:59:42.460Z,3.50
2022-10-09T14:02:11.140Z,5.15
2022-10-09T14:04:39.254Z,7.95
2022-10-09T14:07:07.208Z,4.57
2022-10-09T14:09:34.958Z,4.50
2022-10-09T14:12:02.711Z,5.85
2022-10-09T14:14:30.499Z,4.95
2022-10-09T14:16:58.143Z,4.63
2022-10-09T14:19:28.023Z,5.32
2022-10-09T14:21:56.269Z,4.03
2022-10-09T14:24:24.589Z,4.03
2022-10-09T14:26:52.722Z,5.22
2022-10-09T14:29:20.379Z,3.35
2022-10-09T14:31:51.073Z,4.93
2022-10-09T14:34:18.742Z,3.80
2022-10-09T14:36:47.029Z,3.95
2022-10-09T14:39:14.784Z,3.90
2022-10-09T14:41:42.587Z,4.32
2022-10-09T14:44:10.978Z,5.55
2022-10-09T14:46:39.357Z,8.07
2022-10-09T14:49:07.934Z,3.60
2022-10-09T14:51:37.364Z,3.85
2022-10-09T14:54:05.442Z,4.25
2022-10-09T14:56:33.414Z,4.97
2022-10-09T14:59:01.349Z,10.13
2022-10-09T15:01:29.772Z,5.72
2022-10-09T15:03:57.531Z,5.78
2022-10-09T15:06:25.274Z,9.63
2022-10-09T15:08:55.226Z,9.07
2022-10-09T15:11:23.427Z,5.87
2022-10-09T15:13:56.868Z,6.05
2022-10-09T15:16:35.876Z,6.03
2022-10-09T15:24:31.050Z,5.55
2022-10-09T15:26:58.818Z,8.45
2022-10-09T15:32:08.946Z,8.43
2022-10-09T15:34:40.787Z,5.38
2022-10-09T15:37:12.829Z,6.05
2022-10-09T15:39:40.489Z,7.22
2022-10-09T15:42:08.091Z,5.10
2022-10-09T15:44:36.460Z,7.35
2022-10-09T15:47:04.757Z,6.88
2022-10-09T15:49:35.040Z,8.57
2022-10-09T15:52:07.397Z,5.85
2022-10-09T15:57:24.421Z,6.57
2022-10-09T16:00:01.597Z,8.15
2022-10-09T16:08:07.632Z,5.30
2022-10-09T16:22:17.852Z,11.57
2022-10-09T16:28:03.492Z,6.75
2022-10-09T16:41:38.357Z,5.57
2022-10-09T16:44:20.115Z,7.05
2022-10-09T17:00:25.560Z,7.43
2022-10-09T17:02:53.187Z,8.70
2022-10-09T17:05:20.936Z,6.82
2022-10-09T17:07:48.767Z,6.70
2022-10-09T17:10:16.468Z,6.25
2022-10-09T17:12:43.957Z,5.68
2022-10-09T17:15:12.686Z,8.63
2022-10-09T17:17:40.852Z,7.80
2022-10-09T17:20:08.955Z,5.75
2022-10-09T17:22:36.702Z,9.43
2022-10-09T17:25:07.158Z,8.63
2022-10-09T17:27:46.087Z,6.72
2022-10-09T17:30:16.338Z,9.38
2022-10-09T17:32:43.925Z,6.75
2022-10-09T17:35:11.723Z,7.47
2022-10-09T17:37:39.299Z,12.48
2022-10-09T17:40:07.172Z,5.63
2022-10-09T17:42:35.494Z,5.95
2022-10-09T17:45:03.260Z,8.43
2022-10-09T17:47:31.488Z,4.88
2022-10-09T17:50:02.399Z,6.30
2022-10-09T17:54:58.129Z,7.32
2022-10-09T17:57:26.293Z,5.35
2022-10-09T17:59:54.178Z,5.07
2022-10-09T18:02:25.899Z,9.10
2022-10-09T18:04:57.374Z,5.90
2022-10-09T18:07:25.877Z,9.65
2022-10-09T18:09:53.873Z,7.35
2022-10-09T18:12:21.714Z,7.35
2022-10-09T18:14:54.137Z,7.40
2022-10-09T18:17:21.976Z,7.32
2022-10-09T18:19:50.114Z,7.50
2022-10-09T18:22:19.020Z,7.53
2022-10-09T18:24:46.871Z,9.25
2022-10-09T18:27:18.810Z,7.90
2022-10-09T18:29:51.475Z,8.02
2022-10-09T18:32:19.859Z,6.78
2022-10-09T18:34:48.234Z,9.30
2022-10-09T18:37:24.116Z,9.45
2022-10-09T18:42:52.293Z,8.57
2022-10-09T18:45:20.891Z,8.60
2022-10-09T18:50:57.513Z,7.07
2022-10-09T18:53:25.354Z,8.02
2022-10-09T18:55:53.198Z,6.38
2022-10-09T18:58:22.202Z,7.32
2022-10-09T19:00:50.355Z,8.32
2022-10-09T19:03:18.234Z,7.90
2022-10-09T19:05:46.043Z,7.15
2022-10-09T19:08:14.939Z,7.65
2022-10-09T19:10:42.954Z,8.80
2022-10-09T19:13:10.921Z,7.13
2022-10-09T19:15:38.945Z,6.00
2022-10-09T19:18:06.904Z,6.97
2022-10-09T19:20:39.246Z,8.63
2022-10-09T19:23:08.943Z,6.55
2022-10-09T19:25:36.746Z,6.80
2022-10-09T19:28:04.533Z,7.63
2022-10-09T19:30:32.512Z,7.93
2022-10-09T19:33:00.547Z,6.03
2022-10-09T19:35:28.371Z,7.80
2022-10-09T19:37:58.597Z,7.30
2022-10-09T19:40:26.478Z,7.13
2022-10-09T19:42:55.371Z,8.93
2022-10-09T19:45:23.553Z,5.50
2022-10-09T19:47:54.211Z,9.38
2022-10-09T19:52:50.170Z,8.43
2022-10-09T19:55:20.332Z,6.30
2022-10-09T19:57:48.576Z,11.93
2022-10-09T20:00:20.547Z,8.30
2022-10-09T20:02:48.587Z,7.55
2022-10-09T20:05:16.687Z,12.80
2022-10-09T20:07:44.756Z,10.05
2022-10-09T20:10:12.627Z,10.40
2022-10-09T20:12:43.681Z,11.90
2022-10-09T20:17:39.020Z,8.98
2022-10-09T20:20:07.647Z,7.70
2022-10-09T20:22:35.466Z,9.95
2022-10-09T20:25:03.302Z,11.02
2022-10-09T20:27:31.458Z,10.23
2022-10-09T20:29:59.359Z,6.50
2022-10-09T20:32:27.192Z,9.10
2022-10-09T20:34:56.716Z,9.30
2022-10-09T20:37:24.874Z,11.77
2022-10-09T20:39:52.568Z,8.25
2022-10-09T20:42:20.529Z,8.98
2022-10-09T20:44:48.142Z,8.40
2022-10-09T20:47:15.812Z,7.95
2022-10-09T20:49:44.011Z,7.45
2022-10-09T20:52:11.732Z,9.75
2022-10-09T20:54:39.516Z,10.93
2022-10-09T20:57:07.347Z,9.68
2022-10-09T20:59:35.136Z,7.95
2022-10-09T21:02:02.992Z,6.85
2022-10-09T21:04:32.090Z,8.20
2022-10-09T21:07:00.990Z,9.80
2022-10-09T21:09:33.150Z,7.47
2022-10-09T21:12:05.074Z,7.22
2022-10-09T21:14:32.960Z,8.20
2022-10-09T21:17:00.902Z,7.18
2022-10-09T21:19:29.091Z,8.18
2022-10-09T21:21:57.282Z,7.95
2022-10-09T21:24:25.117Z,8.75
2022-10-09T21:26:52.868Z,9.07
2022-10-09T21:29:23.464Z,12.02
2022-10-09T21:31:51.121Z,11.88
2022-10-09T21:34:18.836Z,11.50
2022-10-09T21:37:16.396Z,7.82
2022-10-09T21:39:38.123Z,9.18
2022-10-09T21:42:06.312Z,10.90
2022-10-09T21:44:34.285Z,10.32
2022-10-09T21:47:01.833Z,9.40
2022-10-09T21:49:29.576Z,8.65
2022-10-09T21:51:57.651Z,8.73
2022-10-09T21:54:25.388Z,8.13
2022-10-09T21:56:53.358Z,9.23
2022-10-09T21:59:21.822Z,10.75
2022-10-09T22:01:49.548Z,9.88
2022-10-09T22:04:17.314Z,12.18
2022-10-09T22:06:45.061Z,9.85
2022-10-09T22:09:12.707Z,9.68
2022-10-09T22:11:40.378Z,11.13
2022-10-09T22:14:08.246Z,9.23
2022-10-09T22:16:35.863Z,8.38
2022-10-09T22:19:03.597Z,7.43
2022-10-09T22:21:31.506Z,8.25
2022-10-09T22:24:00.416Z,6.82
2022-10-09T22:26:28.505Z,10.55
2022-10-09T22:28:56.284Z,9.70
2022-10-09T22:31:25.409Z,9.60
2022-10-09T22:33:57.923Z,11.38
2022-10-09T22:36:34.725Z,10.57
2022-10-09T22:39:04.391Z,9.32
2022-10-09T22:41:35.066Z,10.05
2022-10-09T22:44:03.242Z,11.38
2022-10-09T22:46:32.382Z,7.38
2022-10-09T22:49:01.660Z,10.07
2022-10-09T22:51:29.597Z,8.20
2022-10-09T22:53:58.554Z,10.02
2022-10-09T22:56:27.631Z,13.43
2022-10-09T22:58:55.271Z,9.80
2022-10-09T23:01:34.830Z,12.18
2022-10-09T23:04:05.206Z,10.73
2022-10-09T23:06:33.397Z,12.98
2022-10-09T23:09:01.349Z,9.48
2022-10-09T23:11:29.372Z,12.30
2022-10-09T23:13:58.442Z,7.05
2022-10-09T23:16:27.008Z,10.77
2022-10-09T23:18:55.496Z,10.07
2022-10-09T23:21:25.310Z,9.80
2022-10-09T23:23:53.912Z,9.57
2022-10-09T23:26:23.277Z,9.10
2022-10-09T23:28:52.204Z,12.20
2022-10-09T23:31:20.839Z,10.32
2022-10-09T23:33:49.169Z,10.63
2022-10-09T23:36:19.697Z,8.68
2022-10-09T23:38:48.075Z,12.63
2022-10-09T23:41:17.338Z,9.80
2022-10-09T23:43:52.274Z,10.32
2022-10-09T23:46:21.094Z,13.80
2022-10-09T23:48:49.542Z,11.07
2022-10-09T23:51:18.387Z,9.57
2022-10-09T23:53:46.491Z,14.15
2022-10-09T23:56:23.543Z,10.18
2022-10-09T23:58:51.898Z,10.75
